Time;durP1;ratioP1;P1;durP2;ratioP2;P2;SDS_P1;SDS_P2;PMS_P1;PMS_P2;Temp;Humidity;BMP_temperature;BMP_pressure;BME280_temperature;BME280_humidity;BME280_pressure;Samples;Min_cycle;Max_cycle;Signal;HPM_P1;HPM_P2
2023/01/21 00:01:18;;;;;;;;;4.00;3.00;;;;;;;;117945;1187;24713;-62
2023/01/21 00:03:47;;;;;;;;;3.50;3.50;;;;;;;;117938;1181;24961;-61
2023/01/21 00:06:16;;;;;;;;;2.00;2.00;;;;;;;;117807;1181;25509;-61
2023/01/21 00:08:44;;;;;;;;;4.00;3.00;;;;;;;;117839;1179;26243;-62
2023/01/21 00:11:14;;;;;;;;;1.67;1.67;;;;;;;;117922;1180;25400;-61
2023/01/21 00:13:43;;;;;;;;;3.50;3.50;;;;;;;;117845;1181;25250;-62
2023/01/21 00:16:12;;;;;;;;;3.50;3.00;;;;;;;;117865;1180;25631;-62
2023/01/21 00:18:41;;;;;;;;;3.33;3.33;;;;;;;;117789;1179;24882;-61
2023/01/21 00:21:09;;;;;;;;;3.67;3.67;;;;;;;;117933;1180;25518;-61
2023/01/21 00:23:38;;;;;;;;;4.75;3.75;;;;;;;;117941;1184;25456;-61
2023/01/21 00:26:10;;;;;;;;;3.33;3.33;;;;;;;;117925;1179;25746;-61
2023/01/21 00:28:40;;;;;;;;;1.50;1.00;;;;;;;;117527;1180;24973;-62
2023/01/21 00:31:10;;;;;;;;;3.00;3.00;;;;;;;;117943;1192;25072;-61
2023/01/21 00:33:38;;;;;;;;;2.75;2.00;;;;;;;;117927;1185;25696;-61
2023/01/21 00:36:10;;;;;;;;;2.00;2.00;;;;;;;;117794;1192;25637;-61
2023/01/21 00:38:38;;;;;;;;;4.00;3.25;;;;;;;;117944;1180;25428;-60
2023/01/21 00:41:09;;;;;;;;;4.00;4.00;;;;;;;;117925;1179;25664;-61
2023/01/21 00:43:41;;;;;;;;;5.50;3.00;;;;;;;;117906;1186;25057;-60
2023/01/21 00:46:10;;;;;;;;;2.33;2.33;;;;;;;;117943;1192;25256;-60
2023/01/21 00:48:39;;;;;;;;;4.67;3.67;;;;;;;;117946;1179;25371;-61
2023/01/21 00:51:08;;;;;;;;;1.50;0.00;;;;;;;;117936;1180;25644;-60
2023/01/21 00:53:42;;;;;;;;;5.00;3.00;;;;;;;;117968;1180;25272;-61
2023/01/21 00:56:12;;;;;;;;;4.00;4.00;;;;;;;;117909;1181;24973;-60
2023/01/21 00:58:44;;;;;;;;;4.00;4.00;;;;;;;;117922;1180;25330;-60
2023/01/21 01:01:16;;;;;;;;;3.67;2.33;;;;;;;;117893;1180;25602;-61
2023/01/21 01:03:46;;;;;;;;;3.33;3.00;;;;;;;;117928;1180;25037;-61
2023/01/21 01:06:20;;;;;;;;;4.00;4.00;;;;;;;;117861;1180;25620;-61
2023/01/21 01:08:49;;;;;;;;;4.00;3.00;;;;;;;;118158;1192;25349;-62
2023/01/21 01:11:20;;;;;;;;;4.50;3.00;;;;;;;;117920;1187;24922;-60
2023/01/21 01:13:48;;;;;;;;;5.25;4.00;;;;;;;;117954;1192;25199;-61
2023/01/21 01:16:18;;;;;;;;;4.00;2.00;;;;;;;;117839;1192;25254;-60
2023/01/21 01:18:47;;;;;;;;;4.25;3.00;;;;;;;;117908;1191;24689;-61
2023/01/21 01:21:18;;;;;;;;;2.00;1.00;;;;;;;;117865;1192;25318;-61
2023/01/21 01:23:50;;;;;;;;;3.00;3.00;;;;;;;;117978;1180;25062;-61
2023/01/21 01:26:20;;;;;;;;;3.33;3.33;;;;;;;;117891;1187;24862;-61
2023/01/21 01:28:49;;;;;;;;;2.67;2.67;;;;;;;;117887;1179;25454;-61
2023/01/21 01:31:18;;;;;;;;;3.33;2.33;;;;;;;;117656;1190;25368;-61
2023/01/21 01:33:47;;;;;;;;;4.33;4.33;;;;;;;;117629;1188;25585;-61
2023/01/21 01:36:18;;;;;;;;;3.33;3.33;;;;;;;;117827;1192;25296;-61
2023/01/21 01:38:46;;;;;;;;;3.00;3.00;;;;;;;;117811;1183;25478;-61
2023/01/21 01:41:27;;;;;;;;;2.33;2.33;;;;;;;;117925;1180;25053;-60
2023/01/21 01:44:03;;;;;;;;;4.00;2.50;;;;;;;;117853;1180;25048;-60
2023/01/21 01:46:34;;;;;;;;;4.00;4.00;;;;;;;;117897;1180;24830;-61
2023/01/21 01:49:18;;;;;;;;;2.00;2.00;;;;;;;;117838;1179;24931;-60
2023/01/21 01:51:50;;;;;;;;;3.33;3.00;;;;;;;;117836;1179;25204;-60
2023/01/21 01:54:23;;;;;;;;;3.00;3.00;;;;;;;;117465;1180;25021;-61
2023/01/21 01:56:54;;;;;;;;;2.00;2.00;;;;;;;;117460;1192;25666;-61
2023/01/21 01:59:23;;;;;;;;;4.00;3.00;;;;;;;;117486;1185;25717;-61
2023/01/21 02:01:51;;;;;;;;;4.00;4.00;;;;;;;;117641;1185;24829;-61
2023/01/21 02:04:24;;;;;;;;;5.25;4.00;;;;;;;;117820;1192;25635;-60
2023/01/21 02:06:54;;;;;;;;;5.00;3.00;;;;;;;;117870;1192;25404;-61
2023/01/21 02:09:28;;;;;;;;;2.67;2.67;;;;;;;;117681;1181;25063;-61
2023/01/21 02:11:59;;;;;;;;;3.00;3.00;;;;;;;;117806;1180;24848;-60
2023/01/21 02:14:29;;;;;;;;;5.00;5.00;;;;;;;;117877;1179;25268;-59
2023/01/21 02:17:06;;;;;;;;;3.00;3.00;;;;;;;;117747;1192;24978;-61
2023/01/21 02:20:14;;;;;;;;;6.00;4.00;;;;;;;;117783;1181;25049;-61
2023/01/21 02:22:58;;;;;;;;;7.00;4.00;;;;;;;;117937;1180;25473;-61
2023/01/21 02:25:48;;;;;;;;;5.25;4.00;;;;;;;;117961;1192;26252;-61
2023/01/21 02:28:48;;;;;;;;;6.00;4.00;;;;;;;;117863;1187;25038;-61
2023/01/21 02:31:54;;;;;;;;;3.67;3.67;;;;;;;;117403;1183;24846;-60
2023/01/21 02:34:46;;;;;;;;;3.50;3.50;;;;;;;;117864;1179;26506;-61
2023/01/21 02:37:38;;;;;;;;;4.00;4.00;;;;;;;;117927;1192;25619;-60
2023/01/21 02:40:12;;;;;;;;;4.00;4.00;;;;;;;;117917;1180;25667;-60
2023/01/21 02:42:47;;;;;;;;;4.50;4.00;;;;;;;;117924;1180;25808;-61
2023/01/21 02:45:24;;;;;;;;;7.00;4.00;;;;;;;;117921;1192;25615;-61
2023/01/21 02:48:04;;;;;;;;;4.00;3.67;;;;;;;;117808;1180;26002;-61
2023/01/21 02:50:40;;;;;;;;;5.50;4.25;;;;;;;;117879;1180;25646;-61
2023/01/21 02:53:28;;;;;;;;;6.00;3.33;;;;;;;;117828;1192;25235;-62
2023/01/21 02:56:06;;;;;;;;;4.00;3.00;;;;;;;;117919;1181;25664;-61
2023/01/21 02:58:39;;;;;;;;;4.50;3.75;;;;;;;;117891;1179;25018;-61
2023/01/21 03:01:40;;;;;;;;;4.75;4.25;;;;;;;;117868;1192;25142;-60
2023/01/21 03:04:47;;;;;;;;;4.67;4.33;;;;;;;;117509;1180;25684;-61
2023/01/21 03:07:31;;;;;;;;;4.00;3.00;;;;;;;;117864;1179;25850;-61
2023/01/21 03:10:11;;;;;;;;;5.00;3.50;;;;;;;;117922;1183;25256;-61
2023/01/21 03:13:00;;;;;;;;;4.33;4.33;;;;;;;;117964;1179;25088;-60
2023/01/21 03:18:26;;;;;;;;;4.00;4.00;;;;;;;;117921;1192;25457;-61
2023/01/21 03:21:00;;;;;;;;;4.50;4.25;;;;;;;;117912;1181;25254;-61
2023/01/21 03:23:43;;;;;;;;;4.00;3.67;;;;;;;;117934;1179;25162;-61
2023/01/21 03:26:14;;;;;;;;;4.00;4.00;;;;;;;;117786;1180;24970;-61
2023/01/21 03:28:49;;;;;;;;;6.00;3.75;;;;;;;;117935;1181;24932;-61
2023/01/21 03:31:20;;;;;;;;;4.00;2.33;;;;;;;;117826;1180;25629;-61
2023/01/21 03:33:52;;;;;;;;;3.00;3.00;;;;;;;;117749;1181;25475;-61
2023/01/21 03:36:37;;;;;;;;;6.00;4.67;;;;;;;;117839;1181;24711;-61
2023/01/21 03:39:32;;;;;;;;;6.00;5.67;;;;;;;;117865;1180;25684;-65
2023/01/21 03:42:01;;;;;;;;;7.00;3.67;;;;;;;;117927;1180;24823;-65
2023/01/21 03:44:30;;;;;;;;;3.00;3.00;;;;;;;;117729;1192;25488;-61
2023/01/21 03:47:20;;;;;;;;;6.00;3.50;;;;;;;;117542;1192;25098;-61
2023/01/21 03:50:03;;;;;;;;;5.00;3.00;;;;;;;;117846;1179;25528;-61
2023/01/21 03:52:32;;;;;;;;;4.00;3.25;;;;;;;;117786;1180;24923;-61
2023/01/21 03:55:00;;;;;;;;;7.00;4.50;;;;;;;;117792;1181;24745;-61
2023/01/21 03:57:29;;;;;;;;;5.50;5.00;;;;;;;;117548;1180;25158;-60
2023/01/21 03:59:57;;;;;;;;;5.00;5.00;;;;;;;;117753;1180;25596;-61
2023/01/21 04:02:26;;;;;;;;;4.00;4.00;;;;;;;;117771;1180;25509;-61
2023/01/21 04:04:54;;;;;;;;;5.00;3.50;;;;;;;;117824;1179;25472;-61
2023/01/21 04:07:23;;;;;;;;;4.33;4.33;;;;;;;;117822;1192;25319;-61
2023/01/21 04:09:51;;;;;;;;;4.00;4.00;;;;;;;;117940;1181;24741;-60
2023/01/21 04:12:20;;;;;;;;;8.00;6.25;;;;;;;;117909;1179;25438;-60
2023/01/21 04:14:48;;;;;;;;;4.00;4.00;;;;;;;;117864;1179;24774;-60
2023/01/21 04:17:17;;;;;;;;;6.00;4.00;;;;;;;;117880;1180;24947;-60
2023/01/21 04:19:45;;;;;;;;;4.00;3.00;;;;;;;;117872;1180;25174;-60
2023/01/21 04:22:14;;;;;;;;;3.00;3.00;;;;;;;;117926;1192;25170;-60
2023/01/21 04:24:42;;;;;;;;;6.00;5.00;;;;;;;;117922;1180;25497;-60
2023/01/21 04:27:11;;;;;;;;;5.00;5.00;;;;;;;;117822;1180;25430;-61
2023/01/21 04:29:39;;;;;;;;;5.67;4.67;;;;;;;;117863;1181;25581;-60
2023/01/21 04:32:08;;;;;;;;;5.00;5.00;;;;;;;;117915;1179;25658;-61
2023/01/21 04:34:36;;;;;;;;;6.75;6.25;;;;;;;;117921;1189;25140;-60
2023/01/21 04:37:05;;;;;;;;;6.00;3.00;;;;;;;;117890;1180;25425;-60
2023/01/21 04:39:33;;;;;;;;;3.67;3.67;;;;;;;;117916;1192;25296;-60
2023/01/21 04:42:01;;;;;;;;;2.50;2.50;;;;;;;;117977;1180;25258;-60
2023/01/21 04:44:30;;;;;;;;;6.00;5.67;;;;;;;;117886;1192;25182;-60
2023/01/21 04:46:58;;;;;;;;;4.00;3.50;;;;;;;;118146;1179;25199;-61
2023/01/21 04:49:27;;;;;;;;;4.75;3.50;;;;;;;;117913;1180;25570;-60
2023/01/21 04:51:55;;;;;;;;;7.00;5.00;;;;;;;;117788;1180;25610;-60
2023/01/21 04:54:24;;;;;;;;;5.00;5.00;;;;;;;;117927;1179;24797;-60
2023/01/21 04:56:52;;;;;;;;;5.00;5.00;;;;;;;;117850;1192;24777;-60
2023/01/21 04:59:20;;;;;;;;;5.00;5.00;;;;;;;;117887;1192;24781;-60
2023/01/21 05:01:49;;;;;;;;;6.00;6.00;;;;;;;;117827;1180;24780;-60
2023/01/21 05:04:18;;;;;;;;;4.33;4.33;;;;;;;;117877;1192;25654;-60
2023/01/21 05:06:46;;;;;;;;;6.50;6.00;;;;;;;;117789;1192;24946;-60
2023/01/21 05:09:15;;;;;;;;;5.33;5.00;;;;;;;;117505;1180;24959;-60
2023/01/21 05:11:43;;;;;;;;;5.33;5.33;;;;;;;;117934;1179;25679;-61
2023/01/21 05:14:11;;;;;;;;;3.00;3.00;;;;;;;;117903;1179;26340;-61
2023/01/21 05:16:40;;;;;;;;;6.50;5.50;;;;;;;;117770;1181;25610;-61
2023/01/21 05:19:09;;;;;;;;;7.67;6.33;;;;;;;;117780;1179;25735;-60
2023/01/21 05:21:37;;;;;;;;;8.50;6.50;;;;;;;;117857;1192;25611;-60
2023/01/21 05:24:06;;;;;;;;;5.00;5.00;;;;;;;;117871;1180;25228;-60
2023/01/21 05:26:34;;;;;;;;;4.25;4.25;;;;;;;;117874;1192;25103;-60
2023/01/21 05:29:03;;;;;;;;;4.67;4.67;;;;;;;;117879;1192;25453;-60
2023/01/21 05:31:31;;;;;;;;;6.00;6.00;;;;;;;;117861;1179;25723;-61
2023/01/21 05:34:00;;;;;;;;;5.67;4.33;;;;;;;;117838;1192;25842;-60
2023/01/21 05:36:29;;;;;;;;;7.00;5.67;;;;;;;;117813;1192;25521;-60
2023/01/21 05:38:57;;;;;;;;;4.00;4.00;;;;;;;;117957;1188;25438;-60
2023/01/21 05:41:26;;;;;;;;;5.67;5.33;;;;;;;;117816;1186;25506;-60
2023/01/21 05:43:54;;;;;;;;;5.67;5.67;;;;;;;;117523;1180;25929;-60
2023/01/21 05:46:23;;;;;;;;;7.00;5.50;;;;;;;;117729;1180;25283;-61
2023/01/21 05:48:51;;;;;;;;;5.67;5.67;;;;;;;;117838;1183;25553;-62
2023/01/21 05:51:20;;;;;;;;;5.00;4.00;;;;;;;;117844;1179;25629;-66
2023/01/21 05:53:49;;;;;;;;;6.00;4.50;;;;;;;;117943;1183;25181;-62
2023/01/21 05:56:17;;;;;;;;;5.00;5.00;;;;;;;;117851;1181;25062;-59
2023/01/21 05:58:46;;;;;;;;;4.00;4.00;;;;;;;;117511;1180;24871;-61
2023/01/21 06:01:15;;;;;;;;;4.00;4.00;;;;;;;;117515;1192;25499;-61
2023/01/21 06:03:43;;;;;;;;;5.33;4.00;;;;;;;;117890;1189;24686;-61
2023/01/21 06:06:12;;;;;;;;;7.00;5.00;;;;;;;;117851;1179;24925;-61
2023/01/21 06:08:40;;;;;;;;;6.67;6.00;;;;;;;;119220;1183;25359;-60
2023/01/21 06:11:09;;;;;;;;;4.33;3.33;;;;;;;;117732;1181;24973;-62
2023/01/21 06:13:37;;;;;;;;;5.00;5.00;;;;;;;;117869;1179;25503;-63
2023/01/21 06:16:06;;;;;;;;;8.00;4.00;;;;;;;;117842;1192;25360;-63
2023/01/21 06:18:34;;;;;;;;;6.00;4.00;;;;;;;;117931;1179;25316;-60
2023/01/21 06:21:03;;;;;;;;;3.50;3.50;;;;;;;;117765;1186;25005;-60
2023/01/21 06:23:32;;;;;;;;;5.00;3.25;;;;;;;;117917;1192;24901;-60
2023/01/21 06:26:01;;;;;;;;;5.33;5.00;;;;;;;;117855;1186;25219;-60
2023/01/21 06:28:30;;;;;;;;;5.50;4.75;;;;;;;;117826;1185;25765;-60
2023/01/21 06:30:58;;;;;;;;;4.00;4.00;;;;;;;;117886;1180;25624;-60
2023/01/21 06:33:27;;;;;;;;;5.25;4.25;;;;;;;;117916;1179;24962;-60
2023/01/21 06:35:55;;;;;;;;;5.33;4.67;;;;;;;;117893;1192;25215;-60
2023/01/21 06:38:24;;;;;;;;;4.50;4.00;;;;;;;;117909;1179;25152;-61
2023/01/21 06:40:52;;;;;;;;;6.00;5.50;;;;;;;;117891;1179;25683;-60
2023/01/21 06:43:21;;;;;;;;;4.75;4.50;;;;;;;;117912;1181;25095;-60
2023/01/21 06:45:49;;;;;;;;;5.00;5.00;;;;;;;;117903;1180;25145;-60
2023/01/21 06:48:18;;;;;;;;;5.50;5.00;;;;;;;;117801;1192;24741;-60
2023/01/21 06:50:47;;;;;;;;;6.00;5.67;;;;;;;;117895;1192;25248;-59
2023/01/21 06:53:15;;;;;;;;;6.50;6.00;;;;;;;;117955;1181;24684;-59
2023/01/21 06:55:46;;;;;;;;;7.67;6.33;;;;;;;;117957;1180;25936;-59
2023/01/21 06:58:14;;;;;;;;;5.00;5.00;;;;;;;;117944;1181;25235;-59
2023/01/21 07:00:43;;;;;;;;;4.50;4.50;;;;;;;;117923;1186;25631;-59
2023/01/21 07:03:12;;;;;;;;;5.67;5.67;;;;;;;;117925;1183;25205;-59
2023/01/21 07:05:41;;;;;;;;;10.50;8.00;;;;;;;;117791;1189;24950;-59
2023/01/21 07:08:09;;;;;;;;;5.00;5.00;;;;;;;;117858;1180;24779;-59
2023/01/21 07:10:38;;;;;;;;;1.00;0.00;;;;;;;;117903;1183;25438;-60
2023/01/21 07:13:06;;;;;;;;;6.50;6.50;;;;;;;;117842;1181;25112;-59
2023/01/21 07:15:35;;;;;;;;;11.00;8.00;;;;;;;;117912;1180;24773;-60
2023/01/21 07:18:03;;;;;;;;;8.75;6.00;;;;;;;;117805;1180;24809;-59
2023/01/21 07:20:32;;;;;;;;;12.00;8.00;;;;;;;;117906;1180;25065;-60
2023/01/21 07:23:00;;;;;;;;;11.00;6.75;;;;;;;;117896;1180;25477;-60
2023/01/21 07:25:29;;;;;;;;;13.00;9.67;;;;;;;;117692;1179;25606;-59
2023/01/21 07:27:57;;;;;;;;;9.00;8.67;;;;;;;;117845;1192;24732;-59
2023/01/21 07:30:26;;;;;;;;;13.25;10.50;;;;;;;;117783;1183;24750;-60
2023/01/21 07:32:54;;;;;;;;;13.00;11.50;;;;;;;;117836;1186;25235;-65
2023/01/21 07:35:23;;;;;;;;;18.00;15.00;;;;;;;;117927;1178;24821;-60
2023/01/21 07:37:51;;;;;;;;;13.50;11.50;;;;;;;;118007;1181;25615;-65
2023/01/21 07:40:20;;;;;;;;;12.50;11.50;;;;;;;;117988;1179;25626;-62
2023/01/21 07:42:53;;;;;;;;;10.00;9.50;;;;;;;;117859;1186;25742;-63
2023/01/21 07:45:22;;;;;;;;;14.00;12.33;;;;;;;;117932;1179;25553;-64
2023/01/21 07:47:51;;;;;;;;;13.00;10.00;;;;;;;;117928;1179;25032;-63
2023/01/21 07:50:19;;;;;;;;;11.25;9.50;;;;;;;;117798;1180;24896;-63
2023/01/21 07:52:48;;;;;;;;;12.00;11.00;;;;;;;;117806;1180;25060;-61
2023/01/21 07:55:16;;;;;;;;;15.00;11.33;;;;;;;;117847;1179;25560;-60
2023/01/21 07:57:45;;;;;;;;;14.00;11.50;;;;;;;;117909;1179;25637;-61
2023/01/21 08:00:14;;;;;;;;;15.50;13.50;;;;;;;;117831;1180;25517;-61
2023/01/21 08:02:43;;;;;;;;;21.33;15.00;;;;;;;;117845;1181;24882;-60
2023/01/21 08:05:12;;;;;;;;;16.00;12.67;;;;;;;;118002;1179;25363;-64
2023/01/21 08:07:40;;;;;;;;;11.50;9.00;;;;;;;;117893;1187;24906;-61
2023/01/21 08:10:09;;;;;;;;;15.00;12.00;;;;;;;;117983;1179;25035;-62
2023/01/21 08:12:40;;;;;;;;;14.50;11.75;;;;;;;;117902;1180;24778;-64
2023/01/21 08:15:10;;;;;;;;;13.50;12.75;;;;;;;;117915;1179;25184;-63
2023/01/21 08:17:42;;;;;;;;;12.50;11.50;;;;;;;;117810;1180;25113;-64
2023/01/21 08:20:11;;;;;;;;;12.00;10.00;;;;;;;;117513;1180;25455;-64
2023/01/21 08:22:39;;;;;;;;;13.67;11.00;;;;;;;;117863;1180;24990;-60
2023/01/21 08:25:09;;;;;;;;;12.00;9.67;;;;;;;;117898;1192;25135;-65
2023/01/21 08:27:37;;;;;;;;;10.00;9.00;;;;;;;;117887;1180;24942;-64
2023/01/21 08:30:07;;;;;;;;;13.50;12.25;;;;;;;;117912;1192;25643;-62
2023/01/21 08:32:35;;;;;;;;;15.50;5.50;;;;;;;;117781;1181;26329;-63
2023/01/21 08:35:05;;;;;;;;;14.50;12.00;;;;;;;;117919;1180;25567;-64
2023/01/21 08:37:33;;;;;;;;;14.25;12.75;;;;;;;;117853;1180;25206;-63
2023/01/21 08:40:01;;;;;;;;;16.00;13.33;;;;;;;;117891;1181;25661;-63
2023/01/21 08:42:30;;;;;;;;;12.00;12.00;;;;;;;;117774;1180;24914;-63
2023/01/21 08:44:58;;;;;;;;;11.50;11.25;;;;;;;;117911;1186;24726;-60
2023/01/21 08:47:27;;;;;;;;;8.50;8.50;;;;;;;;117904;1180;24937;-60
2023/01/21 08:49:55;;;;;;;;;16.25;14.00;;;;;;;;117931;1179;25070;-59
2023/01/21 08:52:24;;;;;;;;;11.67;11.67;;;;;;;;117919;1179;25404;-60
2023/01/21 08:54:53;;;;;;;;;14.00;12.00;;;;;;;;117849;1192;25022;-60
2023/01/21 08:57:21;;;;;;;;;12.25;10.75;;;;;;;;117761;1180;25769;-61
2023/01/21 08:59:50;;;;;;;;;11.75;10.50;;;;;;;;117876;1183;25577;-61
2023/01/21 09:02:18;;;;;;;;;16.00;13.67;;;;;;;;117768;1192;25612;-60
2023/01/21 09:04:49;;;;;;;;;14.67;13.00;;;;;;;;117898;1186;25306;-60
2023/01/21 09:07:17;;;;;;;;;14.33;12.33;;;;;;;;117902;1181;25176;-61
2023/01/21 09:09:47;;;;;;;;;16.67;13.00;;;;;;;;117948;1183;25057;-62
2023/01/21 09:12:15;;;;;;;;;12.33;12.00;;;;;;;;117484;1180;25968;-62
2023/01/21 09:14:44;;;;;;;;;11.00;11.00;;;;;;;;117884;1179;25593;-62
2023/01/21 09:17:12;;;;;;;;;9.33;8.33;;;;;;;;117886;1179;25438;-63
2023/01/21 09:19:41;;;;;;;;;17.00;12.50;;;;;;;;117828;1180;25537;-64
2023/01/21 09:22:09;;;;;;;;;15.00;13.67;;;;;;;;117537;1179;24863;-65
2023/01/21 09:24:37;;;;;;;;;12.00;12.00;;;;;;;;117909;1192;24885;-63
2023/01/21 09:27:07;;;;;;;;;9.25;9.25;;;;;;;;117854;1180;24936;-62
2023/01/21 09:29:36;;;;;;;;;15.75;14.00;;;;;;;;117896;1179;25304;-61
2023/01/21 09:32:05;;;;;;;;;17.00;12.33;;;;;;;;117833;1180;25122;-60
2023/01/21 09:34:33;;;;;;;;;16.50;12.00;;;;;;;;117884;1180;25060;-62
2023/01/21 09:37:03;;;;;;;;;11.25;10.50;;;;;;;;117888;1187;25207;-61
2023/01/21 09:39:32;;;;;;;;;16.50;11.25;;;;;;;;117907;1180;24935;-61
2023/01/21 09:42:01;;;;;;;;;16.00;12.67;;;;;;;;117925;1192;25549;-60
2023/01/21 09:44:34;;;;;;;;;11.50;10.00;;;;;;;;117918;1187;25629;-60
2023/01/21 09:47:39;;;;;;;;;14.33;12.33;;;;;;;;117833;1192;25182;-60
2023/01/21 09:50:20;;;;;;;;;12.00;10.00;;;;;;;;117379;1184;25822;-60
2023/01/21 09:52:53;;;;;;;;;14.00;10.50;;;;;;;;117842;1180;25432;-59
2023/01/21 09:55:28;;;;;;;;;11.00;9.67;;;;;;;;117905;1180;25189;-59
2023/01/21 09:58:17;;;;;;;;;12.50;11.75;;;;;;;;117959;1179;25033;-60
2023/01/21 10:00:53;;;;;;;;;12.00;10.00;;;;;;;;117898;1180;25628;-60
2023/01/21 10:03:54;;;;;;;;;12.00;10.25;;;;;;;;117863;1179;25636;-58
2023/01/21 10:06:42;;;;;;;;;12.00;8.00;;;;;;;;117863;1179;25619;-59
2023/01/21 10:09:52;;;;;;;;;14.00;12.00;;;;;;;;117821;1186;24917;-60
2023/01/21 10:12:42;;;;;;;;;15.00;12.00;;;;;;;;117830;1180;25326;-60
2023/01/21 10:15:13;;;;;;;;;13.00;11.50;;;;;;;;117910;1180;26427;-60
2023/01/21 10:17:57;;;;;;;;;12.25;10.25;;;;;;;;117881;1192;25161;-60
2023/01/21 10:20:41;;;;;;;;;12.50;12.50;;;;;;;;117835;1181;25631;-60
2023/01/21 10:23:49;;;;;;;;;13.00;8.00;;;;;;;;117845;1183;25627;-61
2023/01/21 10:26:17;;;;;;;;;11.33;9.67;;;;;;;;117788;1180;24807;-61
2023/01/21 10:28:50;;;;;;;;;10.67;9.00;;;;;;;;117849;1192;25082;-61
2023/01/21 10:31:23;;;;;;;;;13.00;10.00;;;;;;;;117951;1192;24953;-60
2023/01/21 10:33:53;;;;;;;;;11.00;11.00;;;;;;;;117823;1181;25206;-59
2023/01/21 10:36:55;;;;;;;;;11.67;8.67;;;;;;;;117626;1181;24930;-60
2023/01/21 10:39:43;;;;;;;;;13.50;11.50;;;;;;;;117921;1179;24836;-60
2023/01/21 10:42:37;;;;;;;;;15.50;12.50;;;;;;;;117944;1183;25051;-60
2023/01/21 10:46:04;;;;;;;;;14.00;12.25;;;;;;;;117884;1180;25083;-60
2023/01/21 10:48:49;;;;;;;;;12.25;10.00;;;;;;;;117599;1188;25342;-60
2023/01/21 10:51:28;;;;;;;;;10.50;9.75;;;;;;;;117553;1192;25538;-60
2023/01/21 10:54:33;;;;;;;;;11.00;8.67;;;;;;;;117534;1192;25057;-60
2023/01/21 10:57:04;;;;;;;;;9.25;9.25;;;;;;;;117565;1183;25414;-61
2023/01/21 10:59:35;;;;;;;;;12.33;9.00;;;;;;;;117579;1192;25488;-62
2023/01/21 11:02:18;;;;;;;;;10.50;8.00;;;;;;;;117551;1180;25193;-62
2023/01/21 11:04:47;;;;;;;;;13.67;10.67;;;;;;;;117912;1179;24988;-61
2023/01/21 11:07:18;;;;;;;;;9.00;8.00;;;;;;;;117827;1179;26410;-61
2023/01/21 11:09:47;;;;;;;;;10.75;9.00;;;;;;;;117856;1187;25184;-61
2023/01/21 11:12:22;;;;;;;;;10.33;9.00;;;;;;;;117495;1180;25236;-61
2023/01/21 11:15:02;;;;;;;;;11.00;10.00;;;;;;;;117883;1192;25500;-60
2023/01/21 11:17:35;;;;;;;;;12.50;8.00;;;;;;;;117785;1179;25321;-61
2023/01/21 11:20:39;;;;;;;;;8.00;8.00;;;;;;;;117889;1180;24816;-61
2023/01/21 11:23:28;;;;;;;;;9.67;9.33;;;;;;;;117905;1192;25644;-59
2023/01/21 11:26:17;;;;;;;;;9.25;8.00;;;;;;;;117833;1180;24809;-59
2023/01/21 11:28:46;;;;;;;;;8.00;8.00;;;;;;;;117908;1180;25115;-59
2023/01/21 11:31:28;;;;;;;;;10.00;9.00;;;;;;;;117557;1186;25215;-59
2023/01/21 11:34:06;;;;;;;;;11.00;8.00;;;;;;;;117851;1178;25789;-60
2023/01/21 11:36:34;;;;;;;;;11.33;8.33;;;;;;;;117905;1181;25305;-60
2023/01/21 11:39:07;;;;;;;;;11.00;9.33;;;;;;;;117833;1180;25163;-60
2023/01/21 11:41:35;;;;;;;;;10.00;8.00;;;;;;;;117935;1181;24958;-60
2023/01/21 11:44:26;;;;;;;;;8.25;7.50;;;;;;;;117946;1192;24912;-60
2023/01/21 11:46:54;;;;;;;;;11.00;8.00;;;;;;;;117913;1192;25428;-60
2023/01/21 11:49:31;;;;;;;;;11.50;9.50;;;;;;;;117797;1180;25125;-60
2023/01/21 11:52:16;;;;;;;;;6.00;5.00;;;;;;;;117913;1192;25771;-60
2023/01/21 11:54:44;;;;;;;;;9.00;6.00;;;;;;;;117814;1179;24736;-60
2023/01/21 11:57:24;;;;;;;;;9.00;8.33;;;;;;;;117775;1192;24794;-60
2023/01/21 11:59:56;;;;;;;;;14.50;10.00;;;;;;;;117796;1180;25199;-61
2023/01/21 12:02:30;;;;;;;;;11.00;8.00;;;;;;;;117810;1180;26261;-61
2023/01/21 12:05:08;;;;;;;;;6.00;6.00;;;;;;;;117798;1180;25038;-61
2023/01/21 12:07:41;;;;;;;;;10.67;9.00;;;;;;;;117882;1181;24937;-61
2023/01/21 12:10:12;;;;;;;;;10.25;7.75;;;;;;;;117843;1181;25679;-61
2023/01/21 12:13:12;;;;;;;;;7.75;7.25;;;;;;;;117896;1188;25226;-60
2023/01/21 12:16:05;;;;;;;;;10.00;8.00;;;;;;;;117768;1179;25075;-61
2023/01/21 12:18:56;;;;;;;;;10.00;8.00;;;;;;;;117857;1179;25577;-59
2023/01/21 12:22:01;;;;;;;;;9.50;8.50;;;;;;;;117917;1181;25450;-59
2023/01/21 12:24:48;;;;;;;;;9.50;7.25;;;;;;;;117861;1179;24816;-59
2023/01/21 12:27:30;;;;;;;;;7.33;7.00;;;;;;;;117482;1180;24854;-58
2023/01/21 12:30:16;;;;;;;;;5.00;5.00;;;;;;;;117889;1187;24741;-57
2023/01/21 12:32:50;;;;;;;;;16.67;9.00;;;;;;;;117920;1180;25467;-59
2023/01/21 12:35:33;;;;;;;;;17.00;10.00;;;;;;;;117860;1182;25407;-60
2023/01/21 12:38:06;;;;;;;;;18.00;10.00;;;;;;;;117545;1180;25373;-56
2023/01/21 12:40:40;;;;;;;;;13.67;9.33;;;;;;;;117892;1180;24824;-58
2023/01/21 12:43:33;;;;;;;;;12.00;9.00;;;;;;;;117814;1192;25351;-62
2023/01/21 12:46:19;;;;;;;;;9.00;7.50;;;;;;;;117482;1180;25206;-61
2023/01/21 12:49:06;;;;;;;;;7.67;7.33;;;;;;;;117821;1180;25674;-63
2023/01/21 12:51:41;;;;;;;;;6.00;4.00;;;;;;;;117671;1190;25161;-62
2023/01/21 12:54:21;;;;;;;;;9.50;8.00;;;;;;;;117590;1180;25601;-66
2023/01/21 12:56:53;;;;;;;;;11.00;7.00;;;;;;;;117511;1180;25693;-61
2023/01/21 12:59:58;;;;;;;;;10.50;7.00;;;;;;;;117800;1192;25609;-61
2023/01/21 13:02:32;;;;;;;;;4.50;4.50;;;;;;;;117722;1180;24949;-64
2023/01/21 13:05:12;;;;;;;;;10.00;9.00;;;;;;;;117833;1179;25202;-62
2023/01/21 13:08:09;;;;;;;;;7.50;7.50;;;;;;;;118371;1179;24955;-60
2023/01/21 13:10:52;;;;;;;;;7.33;7.33;;;;;;;;117521;1192;25548;-61
2023/01/21 13:13:34;;;;;;;;;13.00;6.67;;;;;;;;117837;1183;24835;-59
2023/01/21 13:16:06;;;;;;;;;11.00;7.00;;;;;;;;117687;1192;25568;-59
2023/01/21 13:18:40;;;;;;;;;12.67;6.33;;;;;;;;117830;1181;25570;-61
2023/01/21 13:21:30;;;;;;;;;12.75;10.75;;;;;;;;117849;1180;24877;-59
2023/01/21 13:23:58;;;;;;;;;11.50;8.00;;;;;;;;117782;1179;24903;-60
2023/01/21 13:26:36;;;;;;;;;10.00;7.50;;;;;;;;117469;1192;25557;-59
2023/01/21 13:29:20;;;;;;;;;8.00;7.00;;;;;;;;117887;1181;25480;-60
2023/01/21 13:32:22;;;;;;;;;9.00;7.00;;;;;;;;117885;1187;24785;-59
2023/01/21 13:34:57;;;;;;;;;8.00;7.00;;;;;;;;117859;1192;25201;-57
2023/01/21 13:37:35;;;;;;;;;5.75;4.75;;;;;;;;117905;1181;25263;-61
2023/01/21 13:40:23;;;;;;;;;12.00;8.00;;;;;;;;117879;1180;25829;-61
2023/01/21 13:43:18;;;;;;;;;9.50;7.00;;;;;;;;117819;1180;25186;-61
2023/01/21 13:45:59;;;;;;;;;10.25;8.25;;;;;;;;117874;1184;25604;-60
2023/01/21 13:48:34;;;;;;;;;6.67;6.00;;;;;;;;117796;1181;25069;-60
2023/01/21 13:51:34;;;;;;;;;11.00;9.00;;;;;;;;117906;1180;25368;-60
2023/01/21 13:54:19;;;;;;;;;10.00;9.00;;;;;;;;117741;1181;25303;-59
2023/01/21 13:57:06;;;;;;;;;12.50;9.00;;;;;;;;117868;1188;24954;-60
2023/01/21 13:59:57;;;;;;;;;11.00;7.00;;;;;;;;117761;1181;25581;-60
2023/01/21 14:02:34;;;;;;;;;10.00;8.00;;;;;;;;117844;1189;25196;-63
2023/01/21 14:05:08;;;;;;;;;9.33;9.00;;;;;;;;117843;1192;25616;-61
2023/01/21 14:07:45;;;;;;;;;10.50;8.50;;;;;;;;117680;1179;25612;-63
2023/01/21 14:10:20;;;;;;;;;8.00;6.00;;;;;;;;117805;1192;25648;-61
2023/01/21 14:12:55;;;;;;;;;12.00;8.00;;;;;;;;117686;1180;24928;-61
2023/01/21 14:15:56;;;;;;;;;7.33;6.33;;;;;;;;117939;1192;24787;-61
2023/01/21 14:18:48;;;;;;;;;10.67;7.67;;;;;;;;117931;1192;25008;-62
2023/01/21 14:21:39;;;;;;;;;11.25;7.00;;;;;;;;117865;1181;25321;-62
2023/01/21 14:24:10;;;;;;;;;12.00;10.00;;;;;;;;117969;1180;25702;-62
2023/01/21 14:26:48;;;;;;;;;11.67;9.00;;;;;;;;117500;1180;25564;-62
2023/01/21 14:29:33;;;;;;;;;7.00;7.00;;;;;;;;117543;1191;25645;-63
2023/01/21 14:32:07;;;;;;;;;11.33;8.33;;;;;;;;117479;1184;25587;-61
2023/01/21 14:35:23;;;;;;;;;9.00;8.00;;;;;;;;117512;1183;24829;-62
2023/01/21 14:38:13;;;;;;;;;10.50;7.00;;;;;;;;117501;1183;25475;-59
2023/01/21 14:40:49;;;;;;;;;12.00;9.00;;;;;;;;117900;1181;25527;-61
2023/01/21 14:43:29;;;;;;;;;8.00;7.00;;;;;;;;117833;1181;24898;-60
2023/01/21 14:45:59;;;;;;;;;8.00;8.00;;;;;;;;117913;1179;25898;-61
2023/01/21 14:48:40;;;;;;;;;11.33;9.67;;;;;;;;117927;1181;25076;-61
2023/01/21 14:51:11;;;;;;;;;7.25;7.25;;;;;;;;117841;1192;25269;-60
2023/01/21 14:53:47;;;;;;;;;9.00;9.00;;;;;;;;117878;1180;25387;-61
2023/01/21 14:56:25;;;;;;;;;7.00;7.00;;;;;;;;117844;1192;25138;-61
2023/01/21 14:59:24;;;;;;;;;10.50;6.50;;;;;;;;117898;1180;24797;-61
2023/01/21 15:02:01;;;;;;;;;12.67;8.67;;;;;;;;117905;1183;25425;-61
2023/01/21 15:04:39;;;;;;;;;8.00;6.00;;;;;;;;117813;1180;25620;-61
2023/01/21 15:07:14;;;;;;;;;10.00;8.00;;;;;;;;117809;1192;26481;-61
2023/01/21 15:09:49;;;;;;;;;11.67;10.00;;;;;;;;117903;1181;24979;-60